Pagrindinis puslapis
METAR-TAF:

METAR-TAF

Oro uostai :

Sionderborgas, Danija

platuma: 54-58N, ilguma: 009-47E, Aukštis: 7 m

Dabartinis oras

Ataskaita buvo paskelbta 45 minutes, ne 20:50 UTC
Vėjas 5 kt iš Pietų/Pietryčių
Temperatūra 13°C
Drėgmė 94%
Slėgis 1007 hPa
Matomumas 10 km arba daugiau

METAR: EKSB 162050Z AUTO 16005KT 9999 FEW170/// 13/12 Q1007

Laikas: 23:35 (21:35 UTC)

Prognozė

Ataskaita buvo paskelbta 8 valandos ir 50 minutes, ne 12:45 UTC
Prognozė galioja nuo 16 metu 13 UTC su 16 metu 17 UTC
Vėjas 8 kt iš Pietryčių
Matomumas 10 km arba daugiau
Su prošvaistėmis ne aukštis 2500 ft
Laikinai
nuo 16 metu 13 UTC su 16 metu 17 UTC
Išsisklaidę debesys ne aukštis 2000 ft, Liūtiniai kamuoliniai debesys.
lietus
Tikimybė 40%
nuo 16 metu 13 UTC su 16 metu 17 UTC
Matomumas: 2500 m
perkūnija, lietus,

TAF: EKSB 161245Z 1613/1617 14008KT 9999 BKN025 TEMPO 1613/1617 SHRA SCT020CB PROB40 1613/1617 2500 TSRA

Orai ataskaitas ir orų prognozės (METAR, TAF).

turimą stotys yra geltonos ir raudonos taškus žemėlapyje.

Perkelti pele per norėdami pamatyti stoties vardą.

Tada spustelėkite, norėdami matyti oro stebėjimo ir prognozės.

Norėdami pakeisti žemėlapį: spustelėkite ant žalios mygtukų su juodo kryžiaus žemyn,; žalią mygtuką su brūkšneliu, jei norite nutolinti; arba žalių rodyklių gretimoms žemėlapius.


METAR-TAF: